Time;durP1;ratioP1;P1;durP2;ratioP2;P2;SDS_P1;SDS_P2;PMS_P1;PMS_P2;Temp;Humidity;BMP_temperature;BMP_pressure;BME280_temperature;BME280_humidity;BME280_pressure;Samples;Min_cycle;Max_cycle;Signal;HPM_P1;HPM_P2
2023/08/03 00:01:58;;;;;;;10.70;1.52;;;;;;;;;;5056504;28;20253;-72
2023/08/03 00:04:24;;;;;;;9.60;1.58;;;;;;;;;;5064183;28;20461;-71
2023/08/03 00:06:51;;;;;;;7.82;1.60;;;;;;;;;;5052941;28;20099;-72
2023/08/03 00:09:17;;;;;;;8.50;1.92;;;;;;;;;;5052675;28;20033;-73
2023/08/03 00:11:43;;;;;;;7.50;1.50;;;;;;;;;;5052599;28;20021;-71
2023/08/03 00:14:09;;;;;;;10.00;1.70;;;;;;;;;;5052538;28;20043;-72
2023/08/03 00:16:35;;;;;;;6.55;1.42;;;;;;;;;;5052705;28;20034;-72
2023/08/03 00:19:01;;;;;;;15.48;1.95;;;;;;;;;;5053123;28;20028;-72
2023/08/03 00:21:26;;;;;;;5.50;1.13;;;;;;;;;;5052859;28;20036;-73
2023/08/03 00:23:52;;;;;;;9.20;1.40;;;;;;;;;;5052185;28;20033;-72
2023/08/03 00:26:18;;;;;;;6.25;1.20;;;;;;;;;;5052491;28;20064;-73
2023/08/03 00:28:44;;;;;;;7.80;1.23;;;;;;;;;;5052368;28;20036;-74
2023/08/03 00:31:10;;;;;;;12.00;1.50;;;;;;;;;;5052452;28;20028;-72
2023/08/03 00:33:36;;;;;;;9.27;1.80;;;;;;;;;;5051953;28;20083;-73
2023/08/03 00:36:02;;;;;;;11.50;1.50;;;;;;;;;;5052413;28;20021;-72
2023/08/03 00:38:28;;;;;;;6.30;1.30;;;;;;;;;;5052442;28;20435;-72
2023/08/03 00:40:54;;;;;;;4.35;1.10;;;;;;;;;;5052311;28;20183;-72
2023/08/03 00:43:20;;;;;;;10.43;1.80;;;;;;;;;;5051441;28;20036;-73
2023/08/03 00:45:46;;;;;;;9.10;1.67;;;;;;;;;;5051996;28;20100;-71
2023/08/03 00:48:12;;;;;;;8.55;1.48;;;;;;;;;;5051991;28;20108;-72
2023/08/03 00:50:38;;;;;;;9.57;1.77;;;;;;;;;;5052057;28;20047;-72
2023/08/03 00:53:04;;;;;;;10.77;1.88;;;;;;;;;;5051717;28;20021;-73
2023/08/03 00:55:31;;;;;;;12.20;1.92;;;;;;;;;;5052010;28;20049;-72
2023/08/03 00:57:58;;;;;;;11.95;1.90;;;;;;;;;;5052022;28;20025;-72
2023/08/03 01:00:24;;;;;;;7.72;1.70;;;;;;;;;;5051914;28;20083;-72
2023/08/03 01:02:50;;;;;;;11.18;1.73;;;;;;;;;;5050710;28;20021;-73
2023/08/03 01:05:16;;;;;;;6.10;1.45;;;;;;;;;;5052562;28;20494;-71
2023/08/03 01:07:42;;;;;;;4.95;1.85;;;;;;;;;;5052606;28;20040;-71
2023/08/03 01:10:08;;;;;;;9.98;1.60;;;;;;;;;;5052214;28;20021;-72
2023/08/03 01:12:34;;;;;;;9.52;1.73;;;;;;;;;;5051950;28;20402;-72
2023/08/03 01:15:00;;;;;;;10.15;1.85;;;;;;;;;;5052806;28;20021;-72
2023/08/03 01:17:26;;;;;;;6.03;1.70;;;;;;;;;;5052774;28;20017;-73
2023/08/03 01:19:52;;;;;;;12.48;1.85;;;;;;;;;;5052861;28;20478;-72
2023/08/03 01:22:19;;;;;;;10.30;1.88;;;;;;;;;;5052631;28;20060;-72
2023/08/03 01:24:45;;;;;;;11.07;1.75;;;;;;;;;;5054141;28;20110;-73
2023/08/03 01:27:11;;;;;;;7.43;1.88;;;;;;;;;;5051594;28;20505;-73
2023/08/03 01:29:37;;;;;;;5.82;1.50;;;;;;;;;;5051771;28;20049;-72
2023/08/03 01:32:03;;;;;;;11.32;1.98;;;;;;;;;;5050027;28;20025;-73
2023/08/03 01:34:29;;;;;;;8.77;1.70;;;;;;;;;;5050406;28;20119;-73
2023/08/03 01:36:56;;;;;;;6.43;1.58;;;;;;;;;;5050443;28;20618;-72
2023/08/03 01:39:24;;;;;;;6.85;1.90;;;;;;;;;;5050618;28;20021;-73
2023/08/03 01:41:50;;;;;;;8.13;2.20;;;;;;;;;;5049970;28;20017;-73
2023/08/03 01:44:26;;;;;;;9.98;2.03;;;;;;;;;;5050466;28;20033;-73
2023/08/03 01:46:54;;;;;;;7.55;2.25;;;;;;;;;;5050396;28;20120;-75
2023/08/03 01:49:20;;;;;;;6.53;2.10;;;;;;;;;;5050531;28;20100;-73
2023/08/03 01:51:46;;;;;;;10.95;2.40;;;;;;;;;;5049887;28;20116;-73
2023/08/03 01:54:12;;;;;;;9.93;2.20;;;;;;;;;;5050460;28;20112;-73
2023/08/03 01:56:38;;;;;;;6.95;1.95;;;;;;;;;;5053872;28;20538;-73
2023/08/03 01:59:08;;;;;;;11.23;2.00;;;;;;;;;;5053558;28;20028;-73
2023/08/03 02:01:34;;;;;;;10.25;2.10;;;;;;;;;;5053161;28;20021;-72
2023/08/03 02:04:00;;;;;;;8.23;2.20;;;;;;;;;;5054151;28;20048;-72
2023/08/03 02:06:26;;;;;;;10.27;2.30;;;;;;;;;;5054361;28;20123;-72
2023/08/03 02:08:52;;;;;;;13.73;2.22;;;;;;;;;;5053850;28;20467;-72
2023/08/03 02:11:18;;;;;;;11.00;2.10;;;;;;;;;;5053663;28;20087;-72
2023/08/03 02:13:44;;;;;;;13.88;2.80;;;;;;;;;;5053327;28;20021;-73
2023/08/03 02:16:10;;;;;;;12.63;1.95;;;;;;;;;;5053196;28;20197;-74
2023/08/03 02:18:39;;;;;;;12.32;2.50;;;;;;;;;;5053282;28;20074;-74
2023/08/03 02:21:06;;;;;;;13.23;2.28;;;;;;;;;;5053597;28;20565;-74
2023/08/03 02:23:32;;;;;;;11.43;2.25;;;;;;;;;;5053645;28;20025;-74
2023/08/03 02:25:58;;;;;;;8.93;2.60;;;;;;;;;;5054604;28;20112;-73
2023/08/03 02:28:24;;;;;;;13.00;2.75;;;;;;;;;;5053217;28;20032;-74
2023/08/03 02:30:50;;;;;;;7.75;2.70;;;;;;;;;;5053381;28;20017;-73
2023/08/03 02:33:16;;;;;;;13.75;3.30;;;;;;;;;;5052610;28;20159;-73
2023/08/03 02:35:42;;;;;;;10.00;2.50;;;;;;;;;;5053423;28;20559;-74
2023/08/03 02:38:09;;;;;;;13.15;2.65;;;;;;;;;;5052715;28;20104;-73
2023/08/03 02:40:35;;;;;;;16.63;3.08;;;;;;;;;;5053446;28;20387;-73
2023/08/03 02:43:01;;;;;;;16.25;2.75;;;;;;;;;;5052293;28;20033;-73
2023/08/03 02:45:27;;;;;;;8.40;2.30;;;;;;;;;;5053498;28;20036;-75
2023/08/03 02:47:53;;;;;;;10.90;2.50;;;;;;;;;;5053001;28;20029;-72
2023/08/03 02:50:19;;;;;;;9.15;2.38;;;;;;;;;;5052516;28;20033;-72
2023/08/03 02:52:45;;;;;;;10.27;2.40;;;;;;;;;;5052326;28;20029;-72
2023/08/03 02:55:11;;;;;;;10.95;2.38;;;;;;;;;;5052898;28;20095;-71
2023/08/03 02:57:37;;;;;;;11.27;2.80;;;;;;;;;;5052572;28;20021;-72
2023/08/03 03:00:04;;;;;;;14.45;2.45;;;;;;;;;;5052502;28;20471;-72
2023/08/03 03:02:30;;;;;;;18.92;2.90;;;;;;;;;;5052167;28;20021;-72
2023/08/03 03:04:56;;;;;;;14.07;2.58;;;;;;;;;;5052505;28;20128;-73
2023/08/03 03:07:22;;;;;;;13.25;3.05;;;;;;;;;;5051698;28;20055;-71
2023/08/03 03:09:48;;;;;;;6.90;2.47;;;;;;;;;;5052699;28;20040;-72
2023/08/03 03:12:14;;;;;;;11.05;2.38;;;;;;;;;;5051565;28;20112;-72
2023/08/03 03:14:39;;;;;;;14.73;2.80;;;;;;;;;;5052694;28;20045;-71
2023/08/03 03:17:06;;;;;;;9.68;2.83;;;;;;;;;;5052114;28;20033;-72
2023/08/03 03:19:32;;;;;;;12.38;2.80;;;;;;;;;;5052547;28;20032;-72
2023/08/03 03:21:57;;;;;;;12.32;3.05;;;;;;;;;;5051938;28;20033;-71
2023/08/03 03:24:23;;;;;;;14.52;3.17;;;;;;;;;;5052608;28;20645;-72
2023/08/03 03:26:49;;;;;;;16.38;3.15;;;;;;;;;;5052119;28;20029;-72
2023/08/03 03:29:15;;;;;;;8.88;2.55;;;;;;;;;;5051487;28;20104;-71
2023/08/03 03:31:41;;;;;;;7.93;1.85;;;;;;;;;;5051599;28;20047;-71
2023/08/03 03:34:07;;;;;;;9.07;2.40;;;;;;;;;;5052019;28;20036;-71
2023/08/03 03:36:33;;;;;;;10.85;1.95;;;;;;;;;;5052197;28;20021;-71
2023/08/03 03:38:59;;;;;;;11.57;2.03;;;;;;;;;;5052071;28;20430;-70
2023/08/03 03:41:25;;;;;;;10.40;2.25;;;;;;;;;;5052086;28;20486;-71
2023/08/03 03:43:51;;;;;;;9.60;2.25;;;;;;;;;;5051330;28;20103;-70
2023/08/03 03:46:17;;;;;;;15.68;2.28;;;;;;;;;;5052194;28;20029;-71
2023/08/03 03:48:43;;;;;;;9.15;2.17;;;;;;;;;;5051958;28;20032;-71
2023/08/03 03:51:09;;;;;;;10.23;2.42;;;;;;;;;;5052182;28;20029;-71
2023/08/03 03:53:35;;;;;;;10.70;2.95;;;;;;;;;;5051399;28;20020;-70
2023/08/03 03:56:02;;;;;;;11.38;2.60;;;;;;;;;;5051554;28;20032;-71
2023/08/03 03:58:28;;;;;;;16.05;2.58;;;;;;;;;;5051951;28;20093;-70
2023/08/03 04:00:54;;;;;;;10.70;2.17;;;;;;;;;;5051972;28;20025;-70
2023/08/03 04:03:20;;;;;;;11.50;2.15;;;;;;;;;;5051000;28;20032;-71
2023/08/03 04:05:46;;;;;;;10.18;2.30;;;;;;;;;;5051903;28;20025;-71
2023/08/03 04:08:12;;;;;;;11.35;2.50;;;;;;;;;;5052103;28;20151;-70
2023/08/03 04:10:38;;;;;;;8.05;1.98;;;;;;;;;;5051296;28;20040;-70
2023/08/03 04:13:04;;;;;;;14.23;2.65;;;;;;;;;;5050877;28;20028;-71
2023/08/03 04:15:30;;;;;;;13.95;3.22;;;;;;;;;;5050428;28;20055;-71
2023/08/03 04:17:56;;;;;;;14.40;2.33;;;;;;;;;;5051640;28;20032;-71
2023/08/03 04:20:22;;;;;;;8.88;2.58;;;;;;;;;;5051114;28;20422;-72
2023/08/03 04:22:48;;;;;;;9.70;2.42;;;;;;;;;;5050558;28;20049;-71
2023/08/03 04:25:14;;;;;;;9.70;2.40;;;;;;;;;;5051344;28;20025;-72
2023/08/03 04:27:40;;;;;;;11.50;2.47;;;;;;;;;;5051275;28;20025;-72
2023/08/03 04:30:06;;;;;;;10.50;2.53;;;;;;;;;;5051287;28;20124;-73
2023/08/03 04:32:32;;;;;;;15.07;2.45;;;;;;;;;;5050558;28;20025;-71
2023/08/03 04:34:59;;;;;;;10.73;2.85;;;;;;;;;;5050962;28;20047;-71
2023/08/03 04:37:25;;;;;;;10.57;2.60;;;;;;;;;;5051131;28;20024;-71
2023/08/03 04:39:50;;;;;;;10.00;2.60;;;;;;;;;;5051030;28;20025;-71
2023/08/03 04:42:16;;;;;;;9.02;2.28;;;;;;;;;;5050565;28;20021;-73
2023/08/03 04:44:42;;;;;;;17.27;3.50;;;;;;;;;;5052147;28;20028;-72
2023/08/03 04:47:09;;;;;;;13.90;3.00;;;;;;;;;;5051562;28;20032;-72
2023/08/03 04:49:35;;;;;;;9.88;2.20;;;;;;;;;;5048223;28;20037;-73
2023/08/03 04:52:01;;;;;;;9.85;2.80;;;;;;;;;;5060425;28;20029;-76
2023/08/03 04:54:27;;;;;;;9.65;2.47;;;;;;;;;;5057713;28;20028;-73
2023/08/03 04:56:53;;;;;;;14.15;3.08;;;;;;;;;;5060696;28;20021;-73
2023/08/03 04:59:19;;;;;;;13.90;3.10;;;;;;;;;;5044492;28;20535;-72
2023/08/03 05:01:45;;;;;;;11.07;2.40;;;;;;;;;;5060695;28;20009;-73
2023/08/03 05:04:11;;;;;;;11.23;2.13;;;;;;;;;;5069555;28;20054;-72
2023/08/03 05:06:37;;;;;;;10.73;2.28;;;;;;;;;;5057433;28;20083;-72
2023/08/03 05:09:03;;;;;;;10.15;2.40;;;;;;;;;;5057438;28;20047;-74
2023/08/03 05:11:29;;;;;;;11.52;2.20;;;;;;;;;;5064849;28;20024;-75
2023/08/03 05:13:55;;;;;;;8.38;2.03;;;;;;;;;;5052504;28;20040;-75
2023/08/03 05:16:24;;;;;;;7.40;2.10;;;;;;;;;;5066355;28;20025;-73
2023/08/03 05:18:50;;;;;;;17.60;2.47;;;;;;;;;;5060204;28;20409;-74
2023/08/03 05:21:17;;;;;;;8.98;1.92;;;;;;;;;;5064895;28;20481;-75
2023/08/03 05:23:43;;;;;;;9.60;2.40;;;;;;;;;;5054166;28;20032;-75
2023/08/03 05:26:09;;;;;;;10.35;1.80;;;;;;;;;;5056709;28;20037;-72
2023/08/03 05:28:35;;;;;;;6.47;1.80;;;;;;;;;;5061200;28;20111;-73
2023/08/03 05:31:01;;;;;;;8.00;1.83;;;;;;;;;;5056070;28;20017;-73
2023/08/03 05:33:27;;;;;;;5.68;1.83;;;;;;;;;;5071228;28;20307;-74
2023/08/03 05:35:53;;;;;;;7.60;2.00;;;;;;;;;;5059380;28;20151;-72
2023/08/03 05:38:19;;;;;;;5.03;2.00;;;;;;;;;;5062989;28;20537;-73
2023/08/03 05:40:45;;;;;;;5.82;1.58;;;;;;;;;;5062274;28;20296;-73
2023/08/03 05:43:14;;;;;;;7.18;1.92;;;;;;;;;;5056995;28;20037;-75
2023/08/03 05:45:44;;;;;;;5.00;1.27;;;;;;;;;;5064468;28;20032;-73
2023/08/03 05:48:13;;;;;;;4.60;1.70;;;;;;;;;;5072590;28;20025;-73
2023/08/03 05:50:41;;;;;;;4.63;1.63;;;;;;;;;;5063245;28;20032;-74
2023/08/03 05:53:08;;;;;;;21.48;10.05;;;;;;;;;;5060793;28;20483;-74
2023/08/03 05:55:34;;;;;;;6.63;1.80;;;;;;;;;;5062522;28;20032;-75
2023/08/03 05:58:00;;;;;;;8.30;1.45;;;;;;;;;;5052792;28;20437;-72
2023/08/03 06:00:28;;;;;;;8.18;1.30;;;;;;;;;;5066385;28;20108;-70
2023/08/03 06:02:56;;;;;;;6.93;1.83;;;;;;;;;;5063549;28;20229;-73
2023/08/03 06:05:34;;;;;;;5.88;2.00;;;;;;;;;;5063712;28;20336;-73
2023/08/03 06:08:00;;;;;;;5.82;1.60;;;;;;;;;;5053722;28;20056;-74
2023/08/03 06:10:27;;;;;;;4.88;1.67;;;;;;;;;;5064775;28;20540;-74
2023/08/03 06:12:53;;;;;;;3.47;1.42;;;;;;;;;;5059851;28;20036;-72
2023/08/03 06:15:20;;;;;;;12.52;1.70;;;;;;;;;;5058964;28;20067;-71
2023/08/03 06:17:45;;;;;;;4.60;1.40;;;;;;;;;;5053871;28;20024;-72
2023/08/03 06:20:13;;;;;;;6.80;1.50;;;;;;;;;;5054757;28;20021;-75
2023/08/03 06:22:40;;;;;;;10.75;1.80;;;;;;;;;;5052936;28;20025;-71
2023/08/03 06:25:08;;;;;;;3.25;1.27;;;;;;;;;;5053682;28;20021;-71
2023/08/03 06:27:34;;;;;;;5.65;1.70;;;;;;;;;;5053519;28;20471;-71
2023/08/03 06:30:00;;;;;;;7.55;1.88;;;;;;;;;;5053560;28;20047;-71
2023/08/03 06:32:28;;;;;;;9.55;1.85;;;;;;;;;;5050945;28;20029;-71
2023/08/03 06:34:56;;;;;;;5.65;1.92;;;;;;;;;;5053369;28;20147;-71
2023/08/03 06:37:22;;;;;;;3.63;1.30;;;;;;;;;;5053242;28;20422;-71
2023/08/03 06:39:51;;;;;;;4.13;1.38;;;;;;;;;;5053148;28;20029;-70
2023/08/03 06:42:17;;;;;;;2.95;1.10;;;;;;;;;;5051578;28;20345;-71
2023/08/03 06:44:44;;;;;;;2.85;1.40;;;;;;;;;;5053427;28;20031;-74
2023/08/03 06:47:10;;;;;;;6.60;1.27;;;;;;;;;;5053080;28;20029;-71
2023/08/03 06:49:36;;;;;;;3.28;1.38;;;;;;;;;;5056069;28;20106;-73
2023/08/03 06:52:02;;;;;;;5.43;1.65;;;;;;;;;;5054141;28;20099;-73
2023/08/03 06:54:28;;;;;;;2.38;1.60;;;;;;;;;;5051890;28;20391;-71
2023/08/03 06:56:54;;;;;;;5.53;1.70;;;;;;;;;;5053708;28;20017;-76
2023/08/03 06:59:23;;;;;;;2.65;1.70;;;;;;;;;;5052965;28;20074;-72
2023/08/03 07:01:49;;;;;;;6.10;1.50;;;;;;;;;;5052953;28;20025;-69
2023/08/03 07:04:16;;;;;;;5.28;1.98;;;;;;;;;;5052783;28;20052;-70
2023/08/03 07:06:43;;;;;;;4.57;2.78;;;;;;;;;;5052756;28;20040;-70
2023/08/03 07:09:09;;;;;;;3.47;2.47;;;;;;;;;;5053089;28;20386;-72
2023/08/03 07:11:35;;;;;;;7.22;2.22;;;;;;;;;;5053038;28;20032;-73
2023/08/03 07:14:01;;;;;;;6.95;1.83;;;;;;;;;;5052973;28;20036;-72
2023/08/03 07:16:28;;;;;;;3.70;1.88;;;;;;;;;;5054206;28;20104;-76
2023/08/03 07:18:54;;;;;;;5.65;2.00;;;;;;;;;;5052525;28;20013;-74
2023/08/03 07:21:20;;;;;;;8.35;3.10;;;;;;;;;;5052307;28;20304;-73
2023/08/03 07:23:46;;;;;;;5.40;2.13;;;;;;;;;;5052324;28;20082;-73
2023/08/03 07:26:15;;;;;;;3.60;1.60;;;;;;;;;;5052608;28;20033;-73
2023/08/03 07:28:41;;;;;;;7.72;1.60;;;;;;;;;;5052380;28;20025;-72
2023/08/03 07:31:13;;;;;;;2.63;1.33;;;;;;;;;;5052521;28;20033;-71
2023/08/03 07:33:39;;;;;;;2.35;1.60;;;;;;;;;;5051472;28;20479;-71
2023/08/03 07:36:05;;;;;;;5.18;2.03;;;;;;;;;;5052868;28;20031;-74
2023/08/03 07:38:31;;;;;;;4.88;1.40;;;;;;;;;;5052384;28;20028;-72
2023/08/03 07:40:57;;;;;;;3.70;1.30;;;;;;;;;;5050559;28;20043;-72
2023/08/03 07:43:23;;;;;;;5.93;1.38;;;;;;;;;;5051713;28;20649;-72
2023/08/03 07:45:49;;;;;;;1.77;1.10;;;;;;;;;;5051683;28;20029;-73
2023/08/03 07:48:15;;;;;;;5.25;1.48;;;;;;;;;;5052300;28;20059;-72
2023/08/03 07:50:41;;;;;;;4.25;1.45;;;;;;;;;;5051949;28;20025;-72
2023/08/03 07:53:07;;;;;;;2.70;1.45;;;;;;;;;;5050927;28;20177;-73
2023/08/03 07:55:33;;;;;;;4.32;1.35;;;;;;;;;;5051488;28;20032;-72
2023/08/03 07:57:59;;;;;;;3.95;1.42;;;;;;;;;;5070674;28;20053;-72
2023/08/03 08:00:25;;;;;;;2.65;1.42;;;;;;;;;;5058795;28;20060;-73
2023/08/03 08:02:51;;;;;;;3.08;1.40;;;;;;;;;;5032051;28;20440;-73
2023/08/03 08:05:17;;;;;;;1.70;1.25;;;;;;;;;;5033242;28;20096;-71
2023/08/03 08:07:43;;;;;;;1.20;1.10;;;;;;;;;;5032703;28;20352;-72
2023/08/03 08:10:12;;;;;;;3.28;1.48;;;;;;;;;;5042845;28;20166;-71
2023/08/03 08:12:38;;;;;;;3.92;1.40;;;;;;;;;;5051471;28;20470;-73
2023/08/03 08:15:04;;;;;;;3.83;1.42;;;;;;;;;;5053712;28;20017;-72
2023/08/03 08:17:30;;;;;;;1.25;1.02;;;;;;;;;;5053183;28;20099;-74
2023/08/03 08:19:57;;;;;;;1.63;1.33;;;;;;;;;;5052879;28;20052;-73
2023/08/03 08:22:23;;;;;;;1.90;1.05;;;;;;;;;;5052424;28;20471;-72
2023/08/03 08:24:49;;;;;;;1.67;1.10;;;;;;;;;;5052788;28;20659;-72
2023/08/03 08:27:16;;;;;;;1.63;1.00;;;;;;;;;;5052565;28;20147;-74
2023/08/03 08:29:45;;;;;;;1.92;0.98;;;;;;;;;;5052344;28;20485;-73
2023/08/03 08:32:11;;;;;;;2.15;1.20;;;;;;;;;;5052175;28;20033;-74
2023/08/03 08:34:37;;;;;;;1.10;0.95;;;;;;;;;;5056082;28;20029;-74
2023/08/03 08:37:03;;;;;;;1.85;1.40;;;;;;;;;;5052634;28;20025;-73
2023/08/03 08:39:29;;;;;;;1.67;1.40;;;;;;;;;;5052419;28;20029;-74
2023/08/03 08:41:56;;;;;;;3.03;1.50;;;;;;;;;;5052000;28;20091;-73
2023/08/03 08:44:22;;;;;;;1.67;1.40;;;;;;;;;;5052075;28;20029;-73
2023/08/03 08:46:48;;;;;;;3.38;1.70;;;;;;;;;;5052342;28;20059;-73
2023/08/03 08:49:14;;;;;;;2.88;1.65;;;;;;;;;;5052124;28;20535;-74
2023/08/03 08:51:41;;;;;;;2.15;1.70;;;;;;;;;;5053631;28;20041;-77
2023/08/03 08:54:07;;;;;;;1.70;1.30;;;;;;;;;;5059101;28;20021;-74
2023/08/03 08:56:34;;;;;;;3.60;1.45;;;;;;;;;;5052175;28;20402;-73
2023/08/03 08:59:00;;;;;;;2.17;1.10;;;;;;;;;;5052658;28;20036;-73
2023/08/03 09:01:26;;;;;;;3.53;1.00;;;;;;;;;;5052352;28;20013;-72
2023/08/03 09:03:54;;;;;;;5.18;1.13;;;;;;;;;;5052440;28;20122;-73
2023/08/03 09:06:21;;;;;;;1.45;0.80;;;;;;;;;;5053207;28;20548;-73
2023/08/03 09:08:50;;;;;;;1.50;0.90;;;;;;;;;;5052591;28;20466;-75
2023/08/03 09:11:16;;;;;;;1.75;1.00;;;;;;;;;;5052531;28;20040;-74
2023/08/03 09:13:42;;;;;;;1.65;1.00;;;;;;;;;;5051759;28;20391;-77
2023/08/03 09:16:21;;;;;;;1.08;0.80;;;;;;;;;;5051845;28;20027;-76
2023/08/03 09:18:47;;;;;;;3.65;1.02;;;;;;;;;;5051928;28;20020;-76
2023/08/03 09:21:19;;;;;;;0.70;0.70;;;;;;;;;;5052246;28;20104;-77
2023/08/03 09:23:45;;;;;;;1.75;0.80;;;;;;;;;;5051866;28;20032;-76
2023/08/03 09:26:12;;;;;;;1.30;0.80;;;;;;;;;;5054027;28;20036;-77
2023/08/03 09:28:38;;;;;;;2.13;1.00;;;;;;;;;;5053408;28;20021;-77
2023/08/03 09:31:05;;;;;;;2.95;0.70;;;;;;;;;;5052436;28;20094;-77
2023/08/03 09:33:31;;;;;;;2.05;0.73;;;;;;;;;;5051121;28;20025;-74
2023/08/03 09:36:08;;;;;;;3.22;0.90;;;;;;;;;;5051502;28;20390;-74
2023/08/03 09:38:34;;;;;;;1.55;0.70;;;;;;;;;;5051724;28;20103;-72
2023/08/03 09:41:00;;;;;;;1.35;0.70;;;;;;;;;;5052020;28;20035;-73
2023/08/03 09:43:27;;;;;;;1.77;0.85;;;;;;;;;;5051898;28;20028;-72
2023/08/03 09:45:53;;;;;;;4.95;0.75;;;;;;;;;;5051598;28;20025;-73
2023/08/03 09:48:19;;;;;;;1.75;0.85;;;;;;;;;;5051356;28;20086;-74
2023/08/03 09:50:49;;;;;;;2.95;0.77;;;;;;;;;;5051646;28;20025;-75
2023/08/03 09:53:19;;;;;;;3.78;1.00;;;;;;;;;;5052612;28;20025;-74
2023/08/03 09:55:52;;;;;;;3.53;1.75;;;;;;;;;;5053113;28;20029;-74
2023/08/03 09:58:20;;;;;;;2.90;1.90;;;;;;;;;;5051684;28;20079;-75
2023/08/03 10:00:46;;;;;;;2.42;1.70;;;;;;;;;;5052609;28;20407;-73
2023/08/03 10:03:14;;;;;;;1.98;0.98;;;;;;;;;;5052876;28;20039;-74
2023/08/03 10:05:42;;;;;;;2.65;1.10;;;;;;;;;;5051422;28;20390;-74
2023/08/03 10:08:17;;;;;;;2.30;1.00;;;;;;;;;;5051228;28;20021;-73
2023/08/03 10:10:47;;;;;;;1.40;0.63;;;;;;;;;;5051342;28;20391;-73
2023/08/03 10:13:13;;;;;;;8.10;4.75;;;;;;;;;;5051201;28;20102;-72
2023/08/03 10:15:40;;;;;;;1.60;0.95;;;;;;;;;;5053205;28;20021;-76
2023/08/03 10:18:06;;;;;;;0.70;0.60;;;;;;;;;;5059738;28;20017;-77
2023/08/03 10:20:33;;;;;;;4.13;1.52;;;;;;;;;;5058420;28;20052;-75
2023/08/03 10:23:18;;;;;;;3.90;1.33;;;;;;;;;;5039563;28;20554;-76
2023/08/03 10:25:54;;;;;;;1.70;1.10;;;;;;;;;;5048529;28;20051;-75
2023/08/03 10:28:20;;;;;;;4.30;2.20;;;;;;;;;;5047998;28;20032;-74
2023/08/03 10:31:04;;;;;;;2.50;1.15;;;;;;;;;;5039555;28;20104;-73
2023/08/03 10:33:49;;;;;;;5.32;0.93;;;;;;;;;;5037158;28;20111;-74
2023/08/03 10:36:27;;;;;;;2.40;0.75;;;;;;;;;;5039428;28;20056;-73
2023/08/03 10:38:57;;;;;;;1.65;0.90;;;;;;;;;;5045714;28;20110;-73
2023/08/03 10:41:23;;;;;;;3.10;0.77;;;;;;;;;;5045566;28;20047;-74
2023/08/03 10:44:09;;;;;;;1.45;0.70;;;;;;;;;;5051581;28;20079;-75
2023/08/03 10:46:39;;;;;;;2.47;0.82;;;;;;;;;;5048031;28;20085;-73
2023/08/03 10:49:20;;;;;;;2.67;0.80;;;;;;;;;;5047990;28;20488;-74
2023/08/03 10:51:46;;;;;;;1.17;0.65;;;;;;;;;;5053655;28;20100;-74
2023/08/03 10:54:12;;;;;;;2.95;0.77;;;;;;;;;;5043678;28;20019;-74
2023/08/03 10:56:38;;;;;;;2.22;0.93;;;;;;;;;;5047866;28;20127;-75
2023/08/03 10:59:04;;;;;;;2.25;0.70;;;;;;;;;;5046079;28;20055;-74
2023/08/03 11:01:31;;;;;;;2.95;0.93;;;;;;;;;;5049785;28;20016;-73
2023/08/03 11:04:00;;;;;;;4.05;1.30;;;;;;;;;;5039486;28;20037;-75
2023/08/03 11:06:29;;;;;;;3.78;0.90;;;;;;;;;;5040905;28;20013;-72
2023/08/03 11:08:55;;;;;;;2.15;0.93;;;;;;;;;;5052167;28;20052;-74
2023/08/03 11:11:23;;;;;;;1.63;0.90;;;;;;;;;;5045633;28;20471;-73
2023/08/03 11:13:49;;;;;;;4.88;1.83;;;;;;;;;;5042471;28;20037;-74
2023/08/03 11:16:16;;;;;;;3.97;1.15;;;;;;;;;;5048478;28;20031;-75
2023/08/03 11:18:45;;;;;;;2.33;1.00;;;;;;;;;;5051024;28;20021;-74
2023/08/03 11:21:12;;;;;;;2.28;1.20;;;;;;;;;;5036307;28;20559;-75
2023/08/03 11:23:38;;;;;;;2.47;1.10;;;;;;;;;;5035739;28;20057;-74
2023/08/03 11:26:06;;;;;;;4.32;1.40;;;;;;;;;;5036159;28;20025;-73
2023/08/03 11:28:42;;;;;;;3.65;1.40;;;;;;;;;;5035171;28;20036;-73
2023/08/03 11:31:21;;;;;;;2.85;0.80;;;;;;;;;;5034244;28;20033;-73
2023/08/03 11:33:48;;;;;;;2.63;0.80;;;;;;;;;;5032555;28;20392;-75
2023/08/03 11:36:15;;;;;;;1.35;0.60;;;;;;;;;;5033007;28;20013;-74
2023/08/03 11:38:41;;;;;;;2.50;0.77;;;;;;;;;;5032575;28;20055;-74
2023/08/03 11:41:07;;;;;;;5.03;0.77;;;;;;;;;;5032288;28;20050;-73
2023/08/03 11:43:34;;;;;;;2.92;0.90;;;;;;;;;;5031889;28;20500;-73
2023/08/03 11:46:00;;;;;;;1.25;0.85;;;;;;;;;;5032442;28;20391;-72
2023/08/03 11:48:26;;;;;;;4.30;1.23;;;;;;;;;;5032208;28;20496;-73
2023/08/03 11:50:55;;;;;;;3.35;1.17;;;;;;;;;;5032140;28;20028;-73
2023/08/03 11:53:25;;;;;;;2.22;1.13;;;;;;;;;;5031034;28;20036;-73
2023/08/03 11:55:51;;;;;;;4.07;1.00;;;;;;;;;;5032196;28;20403;-72
2023/08/03 11:58:17;;;;;;;1.95;0.80;;;;;;;;;;5032105;28;20032;-74
2023/08/03 12:00:44;;;;;;;4.07;1.00;;;;;;;;;;5031935;28;20490;-74
2023/08/03 12:03:10;;;;;;;2.50;1.00;;;;;;;;;;5031157;28;20604;-74
2023/08/03 12:05:46;;;;;;;4.10;1.15;;;;;;;;;;5032028;28;20025;-72
2023/08/03 12:08:13;;;;;;;2.38;1.20;;;;;;;;;;5031791;28;20384;-75
2023/08/03 12:10:38;;;;;;;1.90;0.90;;;;;;;;;;5038472;28;20564;-75
2023/08/03 12:13:04;;;;;;;4.80;1.00;;;;;;;;;;5062991;28;20040;-73
2023/08/03 12:15:31;;;;;;;2.55;0.70;;;;;;;;;;5064503;28;20017;-76
2023/08/03 12:17:56;;;;;;;3.25;1.40;;;;;;;;;;5059854;28;20395;-74
2023/08/03 12:20:22;;;;;;;5.30;1.65;;;;;;;;;;5051185;28;20032;-74
2023/08/03 12:22:48;;;;;;;7.50;1.17;;;;;;;;;;5050514;28;20376;-73
2023/08/03 12:25:14;;;;;;;4.25;1.17;;;;;;;;;;5051490;28;20029;-74
2023/08/03 12:27:40;;;;;;;4.82;1.33;;;;;;;;;;5051212;28;20029;-72
2023/08/03 12:30:07;;;;;;;6.18;1.30;;;;;;;;;;5051315;28;20021;-74
2023/08/03 12:32:32;;;;;;;4.15;0.93;;;;;;;;;;5050257;28;20526;-74
2023/08/03 12:34:58;;;;;;;6.57;1.88;;;;;;;;;;5051389;28;20112;-75
2023/08/03 12:37:25;;;;;;;6.00;1.45;;;;;;;;;;5051113;28;20489;-73
2023/08/03 12:39:51;;;;;;;7.18;1.45;;;;;;;;;;5050070;28;20059;-74
2023/08/03 12:42:17;;;;;;;5.18;1.40;;;;;;;;;;5047135;28;20021;-73
2023/08/03 12:44:43;;;;;;;5.45;1.40;;;;;;;;;;5054481;28;20469;-74
2023/08/03 12:47:09;;;;;;;7.38;1.63;;;;;;;;;;5054844;28;20033;-73
2023/08/03 12:49:36;;;;;;;5.90;1.50;;;;;;;;;;5056530;28;20462;-74
2023/08/03 12:52:02;;;;;;;11.18;1.98;;;;;;;;;;5055951;28;20024;-74
2023/08/03 12:54:28;;;;;;;6.95;1.40;;;;;;;;;;5067089;28;20036;-75
2023/08/03 12:56:54;;;;;;;6.82;1.48;;;;;;;;;;5059170;28;20086;-74
2023/08/03 12:59:20;;;;;;;8.77;2.92;;;;;;;;;;5056277;28;20061;-74
2023/08/03 13:01:46;;;;;;;9.70;1.85;;;;;;;;;;5061125;28;20028;-74
2023/08/03 13:04:12;;;;;;;7.60;1.77;;;;;;;;;;5053866;28;20040;-74
2023/08/03 13:06:38;;;;;;;7.60;1.73;;;;;;;;;;5060445;28;20032;-75
2023/08/03 13:09:04;;;;;;;8.10;1.48;;;;;;;;;;5058251;28;20033;-74
2023/08/03 13:11:30;;;;;;;8.55;2.05;;;;;;;;;;5062861;28;20044;-75
2023/08/03 13:13:56;;;;;;;7.05;1.38;;;;;;;;;;5055096;28;20066;-75
2023/08/03 13:16:22;;;;;;;6.50;1.88;;;;;;;;;;5052864;28;20144;-74
2023/08/03 13:18:49;;;;;;;6.85;1.50;;;;;;;;;;5057787;28;20027;-76
2023/08/03 13:21:16;;;;;;;9.52;2.80;;;;;;;;;;5053690;28;20463;-75
2023/08/03 13:23:42;;;;;;;5.70;1.75;;;;;;;;;;5061641;28;20108;-75
2023/08/03 13:26:08;;;;;;;5.45;1.20;;;;;;;;;;5061408;28;20025;-75
2023/08/03 13:28:34;;;;;;;9.98;1.15;;;;;;;;;;5068384;28;20032;-75
2023/08/03 13:31:00;;;;;;;5.30;1.30;;;;;;;;;;5060136;28;20047;-74
2023/08/03 13:33:26;;;;;;;8.27;1.25;;;;;;;;;;5050426;28;20562;-75
2023/08/03 13:35:52;;;;;;;6.15;1.70;;;;;;;;;;5066606;28;20052;-76
2023/08/03 13:38:18;;;;;;;6.57;1.65;;;;;;;;;;5071882;28;20025;-76
2023/08/03 13:40:44;;;;;;;5.93;1.60;;;;;;;;;;5071129;28;20031;-75
2023/08/03 13:43:10;;;;;;;9.80;1.67;;;;;;;;;;5061579;28;20116;-73
2023/08/03 13:45:36;;;;;;;11.20;5.35;;;;;;;;;;5062050;28;20032;-75
2023/08/03 13:48:02;;;;;;;6.10;1.73;;;;;;;;;;5066496;28;20031;-75
2023/08/03 13:50:28;;;;;;;9.73;5.45;;;;;;;;;;5071270;28;20428;-74
2023/08/03 13:52:54;;;;;;;7.70;3.25;;;;;;;;;;5074997;28;20032;-74
2023/08/03 13:55:20;;;;;;;18.45;3.97;;;;;;;;;;5075457;28;20078;-75
2023/08/03 13:57:46;;;;;;;7.32;2.53;;;;;;;;;;5075562;28;20397;-73
2023/08/03 14:00:12;;;;;;;8.13;2.33;;;;;;;;;;5075246;28;20016;-73
2023/08/03 14:02:38;;;;;;;7.50;1.95;;;;;;;;;;5074994;28;20375;-75
2023/08/03 14:05:04;;;;;;;7.63;1.63;;;;;;;;;;5075367;28;20119;-77
2023/08/03 14:07:31;;;;;;;8.10;1.80;;;;;;;;;;5067099;28;20411;-73
2023/08/03 14:09:56;;;;;;;7.95;2.70;;;;;;;;;;5032180;28;20025;-73
2023/08/03 14:12:23;;;;;;;6.13;1.63;;;;;;;;;;5033441;28;20055;-73
2023/08/03 14:14:49;;;;;;;6.32;1.33;;;;;;;;;;5034917;28;20030;-74
2023/08/03 14:17:15;;;;;;;4.00;1.05;;;;;;;;;;5034924;28;20372;-75
2023/08/03 14:19:41;;;;;;;4.82;1.33;;;;;;;;;;5033478;28;20021;-74
2023/08/03 14:22:07;;;;;;;7.50;1.90;;;;;;;;;;5033171;28;20029;-72
2023/08/03 14:24:33;;;;;;;6.00;2.22;;;;;;;;;;5033647;28;20033;-72
2023/08/03 14:26:58;;;;;;;7.32;1.80;;;;;;;;;;5033883;28;20372;-72
2023/08/03 14:29:24;;;;;;;5.47;1.60;;;;;;;;;;5062488;28;20029;-74
2023/08/03 14:31:50;;;;;;;9.23;2.42;;;;;;;;;;5075290;28;20076;-72
2023/08/03 14:34:16;;;;;;;7.50;2.53;;;;;;;;;;5075084;28;20099;-72
2023/08/03 14:36:43;;;;;;;7.38;1.95;;;;;;;;;;5073839;28;20486;-73
2023/08/03 14:39:09;;;;;;;10.65;1.90;;;;;;;;;;5074220;28;20024;-72